createdAt,value
2019-01-16T00:00:37.512Z,1001.85
2019-01-16T00:01:37.528Z,1001.83
2019-01-16T00:02:37.544Z,1001.85
2019-01-16T00:03:37.561Z,1001.79
2019-01-16T00:04:37.576Z,1001.9
2019-01-16T00:05:37.592Z,1001.83
2019-01-16T00:06:37.607Z,1001.79
2019-01-16T00:07:37.623Z,1001.86
2019-01-16T00:08:37.638Z,1001.9
2019-01-16T00:09:37.655Z,1001.79
2019-01-16T00:10:37.671Z,1001.83
2019-01-16T00:11:37.686Z,1001.82
2019-01-16T00:12:37.709Z,1001.75
2019-01-16T00:14:37.734Z,1001.79
2019-01-16T00:15:37.749Z,1001.81
2019-01-16T00:16:37.765Z,1001.75
2019-01-16T00:17:37.781Z,1001.69
2019-01-16T00:18:37.897Z,1001.8
2019-01-16T00:19:37.812Z,1001.92
2019-01-16T00:20:37.829Z,1001.87
2019-01-16T00:21:37.848Z,1001.83
2019-01-16T00:22:37.860Z,1001.83
2019-01-16T00:23:37.876Z,1001.85
2019-01-16T00:24:37.894Z,1001.91
2019-01-16T00:25:37.908Z,1001.88
2019-01-16T00:26:37.923Z,1001.86
2019-01-16T00:27:37.939Z,1001.83
2019-01-16T00:28:37.955Z,1001.83
2019-01-16T00:30:37.986Z,1001.81
2019-01-16T00:31:38.003Z,1001.82
2019-01-16T00:32:38.020Z,1001.9
2019-01-16T00:33:38.034Z,1001.89
2019-01-16T00:34:38.050Z,1001.82
2019-01-16T00:35:38.066Z,1001.94
2019-01-16T00:36:38.082Z,1001.81
2019-01-16T00:37:38.098Z,1001.9
2019-01-16T00:38:38.114Z,1001.89
2019-01-16T00:39:38.129Z,1001.97
2019-01-16T00:40:38.148Z,1001.83
2019-01-16T00:41:38.160Z,1001.85
2019-01-16T00:42:38.177Z,1001.92
2019-01-16T00:43:38.194Z,1001.95
2019-01-16T00:44:38.208Z,1001.92
2019-01-16T00:46:38.241Z,1001.92
2019-01-16T00:47:38.257Z,1001.94
2019-01-16T00:48:38.273Z,1001.98
2019-01-16T00:49:38.288Z,1002.05
2019-01-16T00:50:38.304Z,1001.99
2019-01-16T00:51:38.320Z,1001.94
2019-01-16T00:52:38.336Z,1001.93
2019-01-16T00:53:38.351Z,1001.98
2019-01-16T00:54:38.368Z,1002.04
2019-01-16T00:55:38.383Z,1002.03
2019-01-16T00:56:38.399Z,1001.96
2019-01-16T00:57:38.415Z,1002.06
2019-01-16T00:58:38.433Z,1002.06
2019-01-16T00:59:38.449Z,1002.08
2019-01-16T01:01:38.480Z,1002.02
2019-01-16T01:02:38.596Z,1001.95
2019-01-16T01:03:38.512Z,1002
2019-01-16T01:04:38.528Z,1002.07
2019-01-16T01:05:38.544Z,1002.06
2019-01-16T01:06:38.559Z,1002.2
2019-01-16T01:07:38.580Z,1002.04
2019-01-16T01:08:38.594Z,1002.11
2019-01-16T01:09:38.607Z,1002.19
2019-01-16T01:10:38.624Z,1002.11
2019-01-16T01:11:38.639Z,1002.11
2019-01-16T01:12:38.662Z,1002.22
2019-01-16T01:13:38.671Z,1002.14
2019-01-16T01:14:38.691Z,1002.23
2019-01-16T01:15:38.703Z,1002.24
2019-01-16T01:16:38.720Z,1002.23
2019-01-16T01:17:38.734Z,1002.31
2019-01-16T01:18:40.851Z,1002.23
2019-01-16T01:19:38.769Z,1002.22
2019-01-16T01:20:38.782Z,1002.33
2019-01-16T01:21:38.798Z,1002.2
2019-01-16T01:22:38.815Z,1002.29
2019-01-16T01:23:38.832Z,1002.31
2019-01-16T01:24:38.847Z,1002.37
2019-01-16T01:25:38.863Z,1002.42
2019-01-16T01:26:38.879Z,1002.32
2019-01-16T01:27:38.947Z,1002.37
2019-01-16T01:28:38.911Z,1002.37
2019-01-16T01:29:38.928Z,1002.42
2019-01-16T01:30:38.944Z,1002.37
2019-01-16T01:31:38.959Z,1002.33
2019-01-16T01:33:38.992Z,1002.48
2019-01-16T01:34:39.058Z,1002.45
2019-01-16T01:35:39.023Z,1002.42
2019-01-16T01:36:39.043Z,1002.58
2019-01-16T01:37:39.056Z,1002.53
2019-01-16T01:38:39.072Z,1002.57
2019-01-16T01:39:39.087Z,1002.59
2019-01-16T01:40:39.108Z,1002.54
2019-01-16T01:41:39.120Z,1002.53
2019-01-16T01:42:39.135Z,1002.52
2019-01-16T01:43:39.151Z,1002.6
2019-01-16T01:44:39.167Z,1002.62
2019-01-16T01:45:39.239Z,1002.48
2019-01-16T01:46:39.199Z,1002.53
2019-01-16T01:47:39.215Z,1002.57
2019-01-16T01:49:39.350Z,1002.61
2019-01-16T01:50:39.264Z,1002.66
2019-01-16T01:51:39.280Z,1002.6
2019-01-16T01:52:39.296Z,1002.68
2019-01-16T01:53:39.311Z,1002.65
2019-01-16T01:54:39.328Z,1002.68
2019-01-16T01:55:39.344Z,1002.7
2019-01-16T01:56:39.360Z,1002.67
2019-01-16T01:57:39.376Z,1002.68
2019-01-16T01:58:39.393Z,1002.67
2019-01-16T01:59:39.408Z,1002.73
2019-01-16T02:00:39.425Z,1002.71
2019-01-16T02:01:39.490Z,1002.7
2019-01-16T02:02:39.457Z,1002.66
2019-01-16T02:03:39.473Z,1002.73
2019-01-16T02:05:39.505Z,1002.71
2019-01-16T02:06:39.521Z,1002.62
2019-01-16T02:07:39.539Z,1002.84
2019-01-16T02:08:39.553Z,1002.7
2019-01-16T02:09:39.569Z,1002.78
2019-01-16T02:10:39.586Z,1002.75
2019-01-16T02:11:39.652Z,1002.8
2019-01-16T02:12:39.617Z,1002.78
2019-01-16T02:13:39.634Z,1002.7
2019-01-16T02:14:39.650Z,1002.81
2019-01-16T02:15:39.768Z,1002.72
2019-01-16T02:16:39.732Z,1002.84
2019-01-16T02:17:39.699Z,1002.84
2019-01-16T02:18:47.030Z,1002.81
2019-01-16T02:19:39.731Z,1002.83
2019-01-16T02:21:39.763Z,1002.85
2019-01-16T02:22:39.780Z,1002.79
2019-01-16T02:23:39.795Z,1002.88
2019-01-16T02:24:39.862Z,1002.9
2019-01-16T02:25:39.828Z,1002.93
2019-01-16T02:26:39.843Z,1002.93
2019-01-16T02:27:39.863Z,1002.89
2019-01-16T02:28:39.877Z,1002.86
2019-01-16T02:29:39.893Z,1002.86
2019-01-16T02:30:39.909Z,1002.9
2019-01-16T02:31:39.925Z,1002.86
2019-01-16T02:32:39.941Z,1002.96
2019-01-16T02:33:39.958Z,1002.88
2019-01-16T02:34:39.974Z,1002.93
2019-01-16T02:36:40.007Z,1002.9
2019-01-16T02:37:40.023Z,1002.95
2019-01-16T02:38:40.041Z,1003
2019-01-16T02:39:40.055Z,1002.93
2019-01-16T02:40:40.072Z,1002.87
2019-01-16T02:41:40.087Z,1002.84
2019-01-16T02:42:40.108Z,1002.87
2019-01-16T02:43:40.120Z,1002.94
2019-01-16T02:44:40.136Z,1002.95
2019-01-16T02:45:40.153Z,1002.98
2019-01-16T02:46:40.169Z,1002.95
2019-01-16T02:47:40.185Z,1003
2019-01-16T02:48:40.200Z,1002.96
2019-01-16T02:49:40.217Z,1003.08
2019-01-16T02:50:40.233Z,1002.99
2019-01-16T02:51:40.251Z,1003.05
2019-01-16T02:52:40.267Z,1003.01
2019-01-16T02:53:40.281Z,1003.15
2019-01-16T02:54:40.299Z,1002.99
2019-01-16T02:55:40.313Z,1003.03
2019-01-16T02:56:40.330Z,1003.13
2019-01-16T02:57:40.347Z,1003.06
2019-01-16T02:58:40.364Z,1003.06
2019-01-16T02:59:40.379Z,1003.16
2019-01-16T03:00:40.395Z,1003.02
2019-01-16T03:01:40.413Z,1003.12
2019-01-16T03:02:40.428Z,1003.12
2019-01-16T03:03:40.444Z,1003.16
2019-01-16T03:04:40.461Z,1003.1
2019-01-16T03:05:40.478Z,1003.13
2019-01-16T03:06:40.492Z,1003.14
2019-01-16T03:08:40.531Z,1003.13
2019-01-16T03:09:40.543Z,1003.13
2019-01-16T03:10:40.557Z,1003.14
2019-01-16T03:11:40.574Z,1003.16
2019-01-16T03:12:40.591Z,1003.16
2019-01-16T03:13:40.607Z,1003.16
2019-01-16T03:14:40.622Z,1003.16
2019-01-16T03:15:40.639Z,1003.18
2019-01-16T03:16:40.655Z,1003.19
2019-01-16T03:17:40.670Z,1003.19
2019-01-16T03:18:40.687Z,1003.2
2019-01-16T03:19:40.703Z,1003.2
2019-01-16T03:20:40.721Z,1003.14
2019-01-16T03:21:40.735Z,1003.15
2019-01-16T03:22:40.751Z,1003.17
2019-01-16T03:24:40.786Z,1003.19
2019-01-16T03:25:40.800Z,1003.17
2019-01-16T03:26:40.817Z,1003.21
2019-01-16T03:27:40.833Z,1003.18
2019-01-16T03:28:40.851Z,1003.17
2019-01-16T03:29:40.865Z,1003.23
2019-01-16T03:30:40.884Z,1003.22
2019-01-16T03:31:40.899Z,1003.21
2019-01-16T03:32:40.918Z,1003.2
2019-01-16T03:33:40.930Z,1003.16
2019-01-16T03:34:40.947Z,1003.17
2019-01-16T03:35:40.966Z,1003.16
2019-01-16T03:36:40.978Z,1003.22
2019-01-16T03:37:41.095Z,1003.18
2019-01-16T03:38:41.012Z,1003.23
2019-01-16T03:40:41.045Z,1003.22
2019-01-16T03:41:41.061Z,1003.23
2019-01-16T03:42:41.076Z,1003.22
2019-01-16T03:43:41.142Z,1003.16
2019-01-16T03:44:41.109Z,1003.24
2019-01-16T03:45:41.125Z,1003.22
2019-01-16T03:46:41.141Z,1003.2
2019-01-16T03:47:41.170Z,1003.18
2019-01-16T03:48:41.173Z,1003.19
2019-01-16T03:49:41.191Z,1003.18
2019-01-16T03:50:41.205Z,1003.17
2019-01-16T03:51:41.222Z,1003.19
2019-01-16T03:52:41.238Z,1003.19
2019-01-16T03:53:41.254Z,1003.22
2019-01-16T03:54:41.272Z,1003.23
2019-01-16T03:56:41.304Z,1003.15
2019-01-16T03:57:41.318Z,1003.21
2019-01-16T03:58:41.335Z,1003.17
2019-01-16T03:59:41.352Z,1003.17
2019-01-16T04:00:41.468Z,1003.16
2019-01-16T04:01:41.382Z,1003.16
2019-01-16T04:02:41.399Z,1003.17
2019-01-16T04:03:41.415Z,1003.17
2019-01-16T04:04:41.431Z,1003.11
2019-01-16T04:05:41.447Z,1003.18
2019-01-16T04:06:41.463Z,1003.17
2019-01-16T04:07:41.480Z,1003.11
2019-01-16T04:08:41.497Z,1003.16
2019-01-16T04:09:41.512Z,1003.11
2019-01-16T04:11:41.545Z,1003.13
2019-01-16T04:12:41.560Z,1003.1
2019-01-16T04:13:41.583Z,1003.17
2019-01-16T04:14:41.593Z,1003.17
2019-01-16T04:15:41.610Z,1003.12
2019-01-16T04:16:41.624Z,1003.04
2019-01-16T04:17:41.642Z,1003.12
2019-01-16T04:18:41.658Z,1003.03
2019-01-16T04:19:41.673Z,1003.09
2019-01-16T04:20:41.690Z,1003.12
2019-01-16T04:21:41.707Z,1003.07
2019-01-16T04:22:41.724Z,1003.11
2019-01-16T04:23:41.737Z,1003.07
2019-01-16T04:24:41.754Z,1003.12
2019-01-16T04:25:41.770Z,1003.12
2019-01-16T04:26:41.787Z,1003.02
2019-01-16T04:27:41.802Z,1003.04
2019-01-16T04:28:41.818Z,1003.1
2019-01-16T04:29:41.837Z,1003.07
2019-01-16T04:30:41.850Z,1003.09
2019-01-16T04:31:41.866Z,1003.04
2019-01-16T04:32:41.883Z,1003.1
2019-01-16T04:33:41.899Z,1003.02
2019-01-16T04:34:41.915Z,1002.96
2019-01-16T04:35:41.930Z,1003.06
2019-01-16T04:36:42.011Z,1003.03
2019-01-16T04:37:41.965Z,1003.01
2019-01-16T04:38:41.978Z,1003
2019-01-16T04:39:41.996Z,1003.03
2019-01-16T04:40:42.011Z,1002.99
2019-01-16T04:41:42.026Z,1003.06
2019-01-16T04:43:42.058Z,1003.06
2019-01-16T04:44:42.075Z,1003
2019-01-16T04:45:42.092Z,1003.04
2019-01-16T04:46:42.107Z,1003.01
2019-01-16T04:47:42.129Z,1003.04
2019-01-16T04:48:42.140Z,1003.04
2019-01-16T04:49:42.155Z,1003.03
2019-01-16T04:50:42.171Z,1002.98
2019-01-16T04:51:42.188Z,1003
2019-01-16T04:52:42.203Z,1003.02
2019-01-16T04:53:42.219Z,1003.01
2019-01-16T04:54:42.235Z,1002.94
2019-01-16T04:55:42.302Z,1002.96
2019-01-16T04:56:42.267Z,1002.94
2019-01-16T04:57:42.286Z,1002.91
2019-01-16T04:59:42.318Z,1002.92
2019-01-16T05:00:42.332Z,1002.87
2019-01-16T05:01:42.348Z,1002.9
2019-01-16T05:02:42.369Z,1002.86
2019-01-16T05:03:42.379Z,1003
2019-01-16T05:04:42.403Z,1002.82
2019-01-16T05:05:42.412Z,1002.84
2019-01-16T05:06:42.479Z,1002.93
2019-01-16T05:07:42.494Z,1002.9
2019-01-16T05:08:42.462Z,1002.89
2019-01-16T05:09:42.485Z,1002.96
2019-01-16T05:10:42.493Z,1002.89
2019-01-16T05:11:42.509Z,1002.9
2019-01-16T05:12:42.525Z,1002.88
2019-01-16T05:13:42.592Z,1002.94
2019-01-16T05:15:42.572Z,1002.95
2019-01-16T05:16:42.601Z,1002.89
2019-01-16T05:17:42.606Z,1002.88
2019-01-16T05:18:42.621Z,1002.91
2019-01-16T05:19:42.641Z,1002.89
2019-01-16T05:20:42.654Z,1002.93
2019-01-16T05:21:42.670Z,1002.94
2019-01-16T05:22:42.685Z,1002.9
2019-01-16T05:23:42.701Z,1002.91
2019-01-16T05:24:42.718Z,1002.9
2019-01-16T05:25:42.733Z,1002.89
2019-01-16T05:26:42.749Z,1002.93
2019-01-16T05:27:42.766Z,1002.96
2019-01-16T05:28:42.783Z,1002.88
2019-01-16T05:29:42.798Z,1002.97
2019-01-16T05:31:42.831Z,1002.95
2019-01-16T05:32:42.848Z,1002.94
2019-01-16T05:33:42.863Z,1002.9
2019-01-16T05:34:42.878Z,1002.96
2019-01-16T05:35:42.894Z,1003.01
2019-01-16T05:36:42.910Z,1003.02
2019-01-16T05:37:42.927Z,1003.02
2019-01-16T05:38:42.943Z,1003.2
2019-01-16T05:39:42.961Z,1003.04
2019-01-16T05:40:42.975Z,1003.04
2019-01-16T05:41:42.991Z,1003.05
2019-01-16T05:42:43.007Z,1003.06
2019-01-16T05:43:43.023Z,1003.03
2019-01-16T05:44:43.040Z,1003.03
2019-01-16T05:46:43.072Z,1003.04
2019-01-16T05:47:43.088Z,1003.03
2019-01-16T05:48:43.105Z,1003.14
2019-01-16T05:49:46.695Z,1003.1
2019-01-16T05:50:43.137Z,1003.11
2019-01-16T05:51:43.155Z,1003.11
2019-01-16T05:52:43.170Z,1003.11
2019-01-16T05:53:43.184Z,1003.12
2019-01-16T05:54:43.200Z,1003
2019-01-16T05:55:43.219Z,1003.05
2019-01-16T05:56:43.232Z,1003.02
2019-01-16T05:57:43.249Z,1003.1
2019-01-16T05:58:43.264Z,1003.13
2019-01-16T05:59:43.285Z,1003.12
2019-01-16T06:00:43.297Z,1003.07
2019-01-16T06:01:43.313Z,1003.09
2019-01-16T06:02:43.429Z,1003.03
2019-01-16T06:03:43.345Z,1003.09
2019-01-16T06:04:43.367Z,1003.09
2019-01-16T06:05:43.376Z,1003.12
2019-01-16T06:06:43.393Z,1003.18
2019-01-16T06:07:43.410Z,1003.18
2019-01-16T06:08:43.427Z,1003.14
2019-01-16T06:09:43.441Z,1003.19
2019-01-16T06:10:43.458Z,1003.12
2019-01-16T06:11:43.517Z,1003.18
2019-01-16T06:12:43.490Z,1003.11
2019-01-16T06:13:43.505Z,1003.03
2019-01-16T06:14:43.523Z,1003.11
2019-01-16T06:15:43.539Z,1003.07
2019-01-16T06:16:43.553Z,1003.08
2019-01-16T06:18:43.586Z,1003.07
2019-01-16T06:19:43.652Z,1003.12
2019-01-16T06:20:43.618Z,1003.13
2019-01-16T06:21:43.633Z,1003.05
2019-01-16T06:22:43.650Z,1003.03
2019-01-16T06:23:43.667Z,1003.04
2019-01-16T06:24:43.688Z,1003.07
2019-01-16T06:25:43.709Z,1003
2019-01-16T06:26:43.716Z,1003.05
2019-01-16T06:27:43.733Z,1003.01
2019-01-16T06:28:43.745Z,1003.03
2019-01-16T06:29:43.762Z,1003.1
2019-01-16T06:30:43.779Z,1003.12
2019-01-16T06:31:43.794Z,1003.12
2019-01-16T06:32:43.810Z,1003.09
2019-01-16T06:34:43.844Z,1003.08
2019-01-16T06:35:43.858Z,1003.06
2019-01-16T06:36:43.881Z,1003.08
2019-01-16T06:37:43.891Z,1003.1
2019-01-16T06:38:43.907Z,1003.08
2019-01-16T06:39:43.922Z,1003.12
2019-01-16T06:40:43.940Z,1003.09
2019-01-16T06:41:44.004Z,1003.09
2019-01-16T06:42:43.972Z,1003.06
2019-01-16T06:43:43.987Z,1003.07
2019-01-16T06:44:44.003Z,1003.12
2019-01-16T06:45:44.021Z,1003.09
2019-01-16T06:46:44.034Z,1003.16
2019-01-16T06:47:44.054Z,1003.14
2019-01-16T06:48:44.067Z,1003.13
2019-01-16T06:50:44.099Z,1003.11
2019-01-16T06:51:44.115Z,1003.12
2019-01-16T06:52:44.131Z,1003.12
2019-01-16T06:53:44.148Z,1003.14
2019-01-16T06:54:44.163Z,1003.15
2019-01-16T06:55:44.180Z,1003.15
2019-01-16T06:56:44.196Z,1003.24
2019-01-16T06:57:44.215Z,1003.19
2019-01-16T06:58:44.227Z,1003.22
2019-01-16T06:59:44.245Z,1003.22
2019-01-16T07:00:44.260Z,1003.21
2019-01-16T07:01:44.275Z,1003.19
2019-01-16T07:02:44.292Z,1003.17
2019-01-16T07:03:44.308Z,1003.14
2019-01-16T07:04:44.323Z,1003.2
2019-01-16T07:06:44.356Z,1003.18
2019-01-16T07:07:44.372Z,1003.2
2019-01-16T07:08:44.388Z,1003.18
2019-01-16T07:09:44.403Z,1003.17
2019-01-16T07:10:44.420Z,1003.2
2019-01-16T07:11:44.475Z,1003.24
2019-01-16T07:12:44.452Z,1003.25
2019-01-16T07:13:44.469Z,1003.2
2019-01-16T07:14:44.487Z,1003.25
2019-01-16T07:15:44.499Z,1003.24
2019-01-16T07:16:44.566Z,1003.22
2019-01-16T07:17:44.533Z,1003.26
2019-01-16T07:18:44.578Z,1003.24
2019-01-16T07:19:44.565Z,1003.25
2019-01-16T07:21:44.598Z,1003.25
2019-01-16T07:22:44.613Z,1003.25
2019-01-16T07:23:44.629Z,1003.24
2019-01-16T07:24:44.645Z,1003.3
2019-01-16T07:25:44.662Z,1003.29
2019-01-16T07:26:44.678Z,1003.31
2019-01-16T07:27:44.700Z,1003.29
2019-01-16T07:28:44.710Z,1003.21
2019-01-16T07:29:44.725Z,1003.29
2019-01-16T07:30:44.743Z,1003.27
2019-01-16T07:31:44.762Z,1003.31
2019-01-16T07:32:44.774Z,1003.3
2019-01-16T07:33:44.789Z,1003.34
2019-01-16T07:34:44.805Z,1003.34
2019-01-16T07:35:44.822Z,1003.39
2019-01-16T07:36:44.838Z,1003.34
2019-01-16T07:37:44.853Z,1003.31
2019-01-16T07:38:44.873Z,1003.35
2019-01-16T07:39:44.886Z,1003.32
2019-01-16T07:40:44.901Z,1003.34
2019-01-16T07:41:44.918Z,1003.31
2019-01-16T07:42:46.878Z,1003.31
2019-01-16T07:43:44.950Z,1003.34
2019-01-16T07:44:44.966Z,1003.28
2019-01-16T07:45:44.982Z,1003.28
2019-01-16T07:46:44.999Z,1003.27
2019-01-16T07:47:45.014Z,1003.31
2019-01-16T07:48:45.036Z,1003.33
2019-01-16T07:49:45.046Z,1003.32
2019-01-16T07:50:45.063Z,1003.31
2019-01-16T07:51:45.078Z,1003.36
2019-01-16T07:53:45.110Z,1003.36
2019-01-16T07:54:45.127Z,1003.29
2019-01-16T07:55:45.142Z,1003.33
2019-01-16T07:56:45.158Z,1003.37
2019-01-16T07:57:45.175Z,1003.36
2019-01-16T07:58:45.191Z,1003.37
2019-01-16T07:59:45.255Z,1003.36
2019-01-16T08:00:45.225Z,1003.37
2019-01-16T08:01:45.239Z,1003.32
2019-01-16T08:02:45.254Z,1003.36
2019-01-16T08:03:45.270Z,1003.35
2019-01-16T08:04:45.287Z,1003.35
2019-01-16T08:05:45.305Z,1003.33
2019-01-16T08:06:45.318Z,1003.43
2019-01-16T08:07:45.334Z,1003.43
2019-01-16T08:09:45.367Z,1003.37
2019-01-16T08:10:45.383Z,1003.34
2019-01-16T08:11:45.399Z,1003.36
2019-01-16T08:12:45.418Z,1003.32
2019-01-16T08:13:45.431Z,1003.33
2019-01-16T08:14:45.446Z,1003.36
2019-01-16T08:15:45.463Z,1003.37
2019-01-16T08:16:45.479Z,1003.35
2019-01-16T08:17:45.495Z,1003.33
2019-01-16T08:18:45.511Z,1003.32
2019-01-16T08:19:45.527Z,1003.34
2019-01-16T08:20:45.543Z,1003.31
2019-01-16T08:21:45.559Z,1003.3
2019-01-16T08:22:45.575Z,1003.32
2019-01-16T08:23:45.592Z,1003.28
2019-01-16T08:25:45.623Z,1003.34
2019-01-16T08:26:45.640Z,1003.29
2019-01-16T08:27:45.656Z,1003.28
2019-01-16T08:28:45.672Z,1003.32
2019-01-16T08:29:45.688Z,1003.35
2019-01-16T08:30:45.704Z,1003.35
2019-01-16T08:31:45.720Z,1003.32
2019-01-16T08:32:45.736Z,1003.32
2019-01-16T08:33:45.754Z,1003.25
2019-01-16T08:34:45.769Z,1003.27
2019-01-16T08:35:45.884Z,1003.3
2019-01-16T08:36:45.850Z,1003.26
2019-01-16T08:37:45.819Z,1003.31
2019-01-16T08:38:45.833Z,1003.37
2019-01-16T08:39:45.850Z,1003.33
2019-01-16T08:41:45.882Z,1003.31
2019-01-16T08:42:45.898Z,1003.3
2019-01-16T08:43:45.914Z,1003.33
2019-01-16T08:44:45.930Z,1003.31
2019-01-16T08:45:45.947Z,1003.33
2019-01-16T08:46:45.962Z,1003.36
2019-01-16T08:47:45.978Z,1003.32
2019-01-16T08:48:46.045Z,1003.35
2019-01-16T08:49:46.011Z,1003.3
2019-01-16T08:50:46.028Z,1003.27
2019-01-16T08:51:46.043Z,1003.29
2019-01-16T08:52:46.062Z,1003.26
2019-01-16T08:53:46.077Z,1003.22
2019-01-16T08:54:46.093Z,1003.31
2019-01-16T08:56:46.126Z,1003.28
2019-01-16T08:57:46.141Z,1003.24
2019-01-16T08:58:46.793Z,1003.34
2019-01-16T08:59:46.174Z,1003.36
2019-01-16T09:00:46.190Z,1003.35
2019-01-16T09:01:46.206Z,1003.38
2019-01-16T09:02:46.223Z,1003.41
2019-01-16T09:03:46.240Z,1003.35
2019-01-16T09:04:46.255Z,1003.31
2019-01-16T09:05:46.275Z,1003.29
2019-01-16T09:06:46.290Z,1003.27
2019-01-16T09:07:46.308Z,1003.3
2019-01-16T09:08:46.321Z,1003.34
2019-01-16T09:09:46.337Z,1003.34
2019-01-16T09:10:46.353Z,1003.45
2019-01-16T09:11:46.370Z,1003.43
2019-01-16T09:12:46.385Z,1003.34
2019-01-16T09:13:46.402Z,1003.37
2019-01-16T09:14:46.419Z,1003.32
2019-01-16T09:15:46.434Z,1003.37
2019-01-16T09:16:46.451Z,1003.3
2019-01-16T09:17:46.468Z,1003.33
2019-01-16T09:18:46.484Z,1003.26
2019-01-16T09:19:46.499Z,1003.34
2019-01-16T09:20:46.516Z,1003.29
2019-01-16T09:21:46.533Z,1003.27
2019-01-16T09:22:46.549Z,1003.24
2019-01-16T09:23:46.565Z,1003.29
2019-01-16T09:24:46.581Z,1003.25
2019-01-16T09:25:46.598Z,1003.33
2019-01-16T09:26:46.615Z,1003.34
2019-01-16T09:28:46.647Z,1003.34
2019-01-16T09:29:46.663Z,1003.4
2019-01-16T09:30:46.681Z,1003.34
2019-01-16T09:31:46.695Z,1003.34
2019-01-16T09:32:46.712Z,1003.29
2019-01-16T09:33:46.729Z,1003.31
2019-01-16T09:34:46.745Z,1003.33
2019-01-16T09:35:46.760Z,1003.34
2019-01-16T09:36:46.778Z,1003.35
2019-01-16T09:37:46.793Z,1003.3
2019-01-16T09:38:46.809Z,1003.38
2019-01-16T09:39:46.827Z,1003.34
2019-01-16T09:40:46.844Z,1003.36
2019-01-16T09:41:46.857Z,1003.36
2019-01-16T09:42:46.874Z,1003.37
2019-01-16T09:44:46.908Z,1003.39
2019-01-16T09:45:46.923Z,1003.36
2019-01-16T09:46:46.942Z,1003.41
2019-01-16T09:47:46.957Z,1003.35
2019-01-16T09:48:46.972Z,1003.35
2019-01-16T09:49:46.989Z,1003.42
2019-01-16T09:50:47.878Z,1003.4
2019-01-16T09:51:47.022Z,1003.35
2019-01-16T09:52:47.037Z,1003.37
2019-01-16T09:53:47.054Z,1003.38
2019-01-16T09:54:47.071Z,1003.38
2019-01-16T09:55:47.087Z,1003.36
2019-01-16T09:56:47.107Z,1003.34
2019-01-16T09:57:47.119Z,1003.37
2019-01-16T09:58:47.136Z,1003.33
2019-01-16T10:00:47.168Z,1003.32
2019-01-16T10:01:47.185Z,1003.31
2019-01-16T10:02:47.201Z,1003.29
2019-01-16T10:03:47.217Z,1003.29
2019-01-16T10:04:47.233Z,1003.28
2019-01-16T10:05:47.250Z,1003.23
2019-01-16T10:06:47.267Z,1003.25
2019-01-16T10:07:47.283Z,1003.26
2019-01-16T10:08:47.298Z,1003.25
2019-01-16T10:09:47.318Z,1003.23
2019-01-16T10:10:47.381Z,1003.25
2019-01-16T10:11:47.347Z,1003.24
2019-01-16T10:12:47.364Z,1003.22
2019-01-16T10:13:47.381Z,1003.21
2019-01-16T10:14:47.396Z,1003.23
2019-01-16T10:16:47.430Z,1003.16
2019-01-16T10:17:47.446Z,1003.14
2019-01-16T10:18:47.462Z,1003.09
2019-01-16T10:19:47.478Z,1003.12
2019-01-16T10:20:47.495Z,1003.08
2019-01-16T10:21:47.511Z,1003.13
2019-01-16T10:22:47.527Z,1003.16
2019-01-16T10:23:48.633Z,1003.07
2019-01-16T10:24:47.560Z,1003.11
2019-01-16T10:25:47.576Z,1003.11
2019-01-16T10:26:47.593Z,1003.09
2019-01-16T10:27:47.609Z,1003.06
2019-01-16T10:28:47.625Z,1003.02
2019-01-16T10:29:47.642Z,1003.08
2019-01-16T10:31:47.675Z,1003.02
2019-01-16T10:32:47.691Z,1003.04
2019-01-16T10:33:47.707Z,1003.05
2019-01-16T10:34:47.723Z,1003.03
2019-01-16T10:35:47.740Z,1003.01
2019-01-16T10:36:47.756Z,1002.99
2019-01-16T10:37:47.772Z,1002.96
2019-01-16T10:38:47.789Z,1002.97
2019-01-16T10:39:47.804Z,1002.95
2019-01-16T10:40:47.823Z,1003.01
2019-01-16T10:41:47.837Z,1002.95
2019-01-16T10:42:47.853Z,1002.88
2019-01-16T10:43:47.870Z,1002.93
2019-01-16T10:44:47.889Z,1002.94
2019-01-16T10:45:47.902Z,1002.95
2019-01-16T10:46:47.919Z,1002.92
2019-01-16T10:47:47.934Z,1002.9
2019-01-16T10:48:49.757Z,1002.85
2019-01-16T10:49:47.968Z,1002.86
2019-01-16T10:50:47.985Z,1002.88
2019-01-16T10:51:48.000Z,1002.8
2019-01-16T10:52:48.016Z,1002.83
2019-01-16T10:53:48.033Z,1002.81
2019-01-16T10:54:48.048Z,1002.79
2019-01-16T10:55:48.065Z,1002.78
2019-01-16T10:56:48.082Z,1002.74
2019-01-16T10:57:48.098Z,1002.74
2019-01-16T10:58:48.113Z,1002.7
2019-01-16T10:59:48.130Z,1002.68
2019-01-16T11:00:48.147Z,1002.68
2019-01-16T11:01:48.162Z,1002.7
2019-01-16T11:03:48.195Z,1002.68
2019-01-16T11:04:48.212Z,1002.71
2019-01-16T11:05:48.227Z,1002.66
2019-01-16T11:06:48.243Z,1002.65
2019-01-16T11:07:48.260Z,1002.63
2019-01-16T11:08:48.276Z,1002.65
2019-01-16T11:09:48.293Z,1002.62
2019-01-16T11:10:48.309Z,1002.61
2019-01-16T11:11:48.326Z,1002.59
2019-01-16T11:12:48.347Z,1002.59
2019-01-16T11:13:48.358Z,1002.65
2019-01-16T11:14:48.424Z,1002.55
2019-01-16T11:15:48.391Z,1002.59
2019-01-16T11:16:48.407Z,1002.58
2019-01-16T11:17:48.423Z,1002.57
2019-01-16T11:19:48.456Z,1002.48
2019-01-16T11:20:48.472Z,1002.53
2019-01-16T11:21:48.488Z,1002.53
2019-01-16T11:22:48.505Z,1002.42
2019-01-16T11:23:48.521Z,1002.46
2019-01-16T11:24:48.538Z,1002.49
2019-01-16T11:25:48.554Z,1002.46
2019-01-16T11:26:48.572Z,1002.45
2019-01-16T11:27:48.586Z,1002.41
2019-01-16T11:28:48.604Z,1002.39
2019-01-16T11:29:48.670Z,1002.41
2019-01-16T11:30:48.687Z,1002.39
2019-01-16T11:31:48.652Z,1002.38
2019-01-16T11:32:48.670Z,1002.28
2019-01-16T11:33:48.685Z,1002.3
2019-01-16T11:35:48.717Z,1002.35
2019-01-16T11:36:48.734Z,1002.34
2019-01-16T11:37:48.751Z,1002.28
2019-01-16T11:38:48.769Z,1002.29
2019-01-16T11:39:48.782Z,1002.21
2019-01-16T11:40:48.801Z,1002.27
2019-01-16T11:41:48.816Z,1002.25
2019-01-16T11:42:48.832Z,1002.18
2019-01-16T11:43:48.849Z,1002.25
2019-01-16T11:44:48.866Z,1002.18
2019-01-16T11:45:48.883Z,1002.21
2019-01-16T11:46:48.898Z,1002.25
2019-01-16T11:47:48.915Z,1002.23
2019-01-16T11:48:48.932Z,1002.18
2019-01-16T11:49:48.948Z,1002.18
2019-01-16T11:51:48.982Z,1002.17
2019-01-16T11:52:48.998Z,1002.16
2019-01-16T11:53:49.014Z,1002.15
2019-01-16T11:54:49.031Z,1002.15
2019-01-16T11:55:49.048Z,1002.15
2019-01-16T11:56:49.064Z,1002.15
2019-01-16T11:57:49.081Z,1002.15
2019-01-16T11:58:49.098Z,1002.14
2019-01-16T11:59:49.114Z,1002.16
2019-01-16T12:00:49.131Z,1002.13
2019-01-16T12:01:49.147Z,1002.12
2019-01-16T12:02:49.164Z,1002.09
2019-01-16T12:03:49.181Z,1002.08
2019-01-16T12:04:49.203Z,1002.09
2019-01-16T12:06:49.232Z,1002.05
2019-01-16T12:07:49.247Z,1002.09
2019-01-16T12:08:49.264Z,1002.08
2019-01-16T12:09:49.281Z,1002.07
2019-01-16T12:10:49.298Z,1002.03
2019-01-16T12:11:49.315Z,1002.06
2019-01-16T12:12:49.331Z,1001.98
2019-01-16T12:13:49.348Z,1002
2019-01-16T12:14:49.369Z,1002.02
2019-01-16T12:15:49.381Z,1001.94
2019-01-16T12:16:49.402Z,1002.01
2019-01-16T12:17:49.415Z,1001.93
2019-01-16T12:18:49.431Z,1001.93
2019-01-16T12:19:49.451Z,1001.89
2019-01-16T12:20:49.464Z,1001.86
2019-01-16T12:21:49.483Z,1001.89
2019-01-16T12:22:49.497Z,1001.83
2019-01-16T12:23:49.514Z,1001.87
2019-01-16T12:24:49.531Z,1001.8
2019-01-16T12:25:49.598Z,1001.83
2019-01-16T12:26:49.567Z,1001.76
2019-01-16T12:27:49.632Z,1001.74
2019-01-16T12:28:49.598Z,1001.75
2019-01-16T12:29:49.614Z,1001.77
2019-01-16T12:30:49.633Z,1001.7
2019-01-16T12:31:50.691Z,1001.7
2019-01-16T12:32:49.664Z,1001.72
2019-01-16T12:33:49.681Z,1001.66
2019-01-16T12:34:49.698Z,1001.6
2019-01-16T12:35:49.715Z,1001.66
2019-01-16T12:36:49.732Z,1001.6
2019-01-16T12:38:49.764Z,1001.67
2019-01-16T12:39:49.781Z,1001.62
2019-01-16T12:40:49.797Z,1001.68
2019-01-16T12:41:49.815Z,1001.58
2019-01-16T12:42:49.831Z,1001.59
2019-01-16T12:43:49.848Z,1001.6
2019-01-16T12:44:49.864Z,1001.61
2019-01-16T12:45:49.881Z,1001.55
2019-01-16T12:46:49.898Z,1001.55
2019-01-16T12:47:49.914Z,1001.56
2019-01-16T12:48:49.930Z,1001.52